sensor_id;sensor_type;location;lat;lon;timestamp;P1;durP1;ratioP1;P2;durP2;ratioP2
57828;SDS011;43657;52.698;6.314;2023-07-16T00:01:55;10.13;;;3.58;;
57828;SDS011;43657;52.698;6.314;2023-07-16T00:04:21;7.68;;;3.50;;
57828;SDS011;43657;52.698;6.314;2023-07-16T00:06:47;8.07;;;3.67;;
57828;SDS011;43657;52.698;6.314;2023-07-16T00:09:12;10.02;;;3.78;;
57828;SDS011;43657;52.698;6.314;2023-07-16T00:11:38;10.35;;;4.00;;
57828;SDS011;43657;52.698;6.314;2023-07-16T00:14:03;8.55;;;3.55;;
57828;SDS011;43657;52.698;6.314;2023-07-16T00:16:30;8.90;;;3.90;;
57828;SDS011;43657;52.698;6.314;2023-07-16T00:18:55;12.73;;;4.03;;
57828;SDS011;43657;52.698;6.314;2023-07-16T00:21:21;9.65;;;3.67;;
57828;SDS011;43657;52.698;6.314;2023-07-16T00:23:47;10.32;;;4.18;;
57828;SDS011;43657;52.698;6.314;2023-07-16T00:26:13;9.10;;;3.70;;
57828;SDS011;43657;52.698;6.314;2023-07-16T00:28:39;9.00;;;3.28;;
57828;SDS011;43657;52.698;6.314;2023-07-16T00:31:04;8.93;;;3.55;;
57828;SDS011;43657;52.698;6.314;2023-07-16T00:33:30;8.45;;;3.70;;
57828;SDS011;43657;52.698;6.314;2023-07-16T00:35:55;10.52;;;3.60;;
57828;SDS011;43657;52.698;6.314;2023-07-16T00:38:21;10.50;;;4.05;;
57828;SDS011;43657;52.698;6.314;2023-07-16T00:40:47;10.43;;;3.90;;
57828;SDS011;43657;52.698;6.314;2023-07-16T00:43:13;8.90;;;3.80;;
57828;SDS011;43657;52.698;6.314;2023-07-16T00:45:39;11.38;;;4.00;;
57828;SDS011;43657;52.698;6.314;2023-07-16T00:48:06;9.30;;;3.70;;
57828;SDS011;43657;52.698;6.314;2023-07-16T00:50:33;7.68;;;3.80;;
57828;SDS011;43657;52.698;6.314;2023-07-16T00:53:04;12.73;;;4.40;;
57828;SDS011;43657;52.698;6.314;2023-07-16T00:55:33;10.23;;;4.30;;
57828;SDS011;43657;52.698;6.314;2023-07-16T00:58:01;8.90;;;4.07;;
57828;SDS011;43657;52.698;6.314;2023-07-16T01:00:30;8.18;;;4.30;;
57828;SDS011;43657;52.698;6.314;2023-07-16T01:03:03;9.40;;;4.28;;
57828;SDS011;43657;52.698;6.314;2023-07-16T01:08:08;7.95;;;3.97;;
57828;SDS011;43657;52.698;6.314;2023-07-16T01:10:35;10.13;;;4.10;;
57828;SDS011;43657;52.698;6.314;2023-07-16T01:13:03;9.63;;;3.95;;
57828;SDS011;43657;52.698;6.314;2023-07-16T01:15:29;9.35;;;4.45;;
57828;SDS011;43657;52.698;6.314;2023-07-16T01:17:55;10.75;;;4.78;;
57828;SDS011;43657;52.698;6.314;2023-07-16T01:20:20;10.27;;;4.82;;
57828;SDS011;43657;52.698;6.314;2023-07-16T01:25:26;8.77;;;4.30;;
57828;SDS011;43657;52.698;6.314;2023-07-16T01:28:38;10.75;;;4.60;;
57828;SDS011;43657;52.698;6.314;2023-07-16T01:31:26;11.00;;;4.55;;
57828;SDS011;43657;52.698;6.314;2023-07-16T01:33:53;10.57;;;4.38;;
57828;SDS011;43657;52.698;6.314;2023-07-16T01:36:20;10.23;;;4.90;;
57828;SDS011;43657;52.698;6.314;2023-07-16T01:38:47;9.25;;;4.65;;
57828;SDS011;43657;52.698;6.314;2023-07-16T01:41:13;9.23;;;5.43;;
57828;SDS011;43657;52.698;6.314;2023-07-16T01:43:38;12.35;;;4.75;;
57828;SDS011;43657;52.698;6.314;2023-07-16T01:46:04;9.45;;;5.22;;
57828;SDS011;43657;52.698;6.314;2023-07-16T01:48:33;10.50;;;5.43;;
57828;SDS011;43657;52.698;6.314;2023-07-16T01:51:02;9.60;;;4.82;;
57828;SDS011;43657;52.698;6.314;2023-07-16T01:53:28;12.40;;;5.95;;
57828;SDS011;43657;52.698;6.314;2023-07-16T01:55:54;9.98;;;5.18;;
57828;SDS011;43657;52.698;6.314;2023-07-16T01:58:19;11.00;;;5.55;;
57828;SDS011;43657;52.698;6.314;2023-07-16T02:00:45;10.25;;;5.22;;
57828;SDS011;43657;52.698;6.314;2023-07-16T02:03:11;8.45;;;4.80;;
57828;SDS011;43657;52.698;6.314;2023-07-16T02:05:36;8.60;;;5.07;;
57828;SDS011;43657;52.698;6.314;2023-07-16T02:08:02;9.77;;;4.90;;
57828;SDS011;43657;52.698;6.314;2023-07-16T02:10:28;7.57;;;4.78;;
57828;SDS011;43657;52.698;6.314;2023-07-16T02:12:53;10.40;;;4.70;;
57828;SDS011;43657;52.698;6.314;2023-07-16T02:15:19;10.80;;;5.05;;
57828;SDS011;43657;52.698;6.314;2023-07-16T02:17:44;8.60;;;5.47;;
57828;SDS011;43657;52.698;6.314;2023-07-16T02:20:10;7.38;;;4.80;;
57828;SDS011;43657;52.698;6.314;2023-07-16T02:22:36;10.75;;;5.10;;
57828;SDS011;43657;52.698;6.314;2023-07-16T02:25:02;8.50;;;5.05;;
57828;SDS011;43657;52.698;6.314;2023-07-16T02:27:29;9.77;;;4.63;;
57828;SDS011;43657;52.698;6.314;2023-07-16T02:29:54;15.40;;;5.53;;
57828;SDS011;43657;52.698;6.314;2023-07-16T02:32:20;12.00;;;4.70;;
57828;SDS011;43657;52.698;6.314;2023-07-16T02:34:46;9.25;;;4.70;;
57828;SDS011;43657;52.698;6.314;2023-07-16T02:37:11;8.82;;;4.55;;
57828;SDS011;43657;52.698;6.314;2023-07-16T02:39:38;10.15;;;5.18;;
57828;SDS011;43657;52.698;6.314;2023-07-16T02:42:04;9.23;;;5.43;;
57828;SDS011;43657;52.698;6.314;2023-07-16T02:44:30;7.72;;;4.88;;
57828;SDS011;43657;52.698;6.314;2023-07-16T02:46:55;9.35;;;4.65;;
57828;SDS011;43657;52.698;6.314;2023-07-16T02:49:21;9.27;;;5.22;;
57828;SDS011;43657;52.698;6.314;2023-07-16T02:51:47;11.40;;;6.07;;
57828;SDS011;43657;52.698;6.314;2023-07-16T02:54:12;10.73;;;5.60;;
57828;SDS011;43657;52.698;6.314;2023-07-16T02:56:38;11.10;;;5.85;;
57828;SDS011;43657;52.698;6.314;2023-07-16T02:59:04;12.60;;;6.28;;
57828;SDS011;43657;52.698;6.314;2023-07-16T03:01:29;12.15;;;5.05;;
57828;SDS011;43657;52.698;6.314;2023-07-16T03:03:55;10.40;;;5.15;;
57828;SDS011;43657;52.698;6.314;2023-07-16T03:06:21;10.50;;;5.40;;
57828;SDS011;43657;52.698;6.314;2023-07-16T03:08:46;10.65;;;5.68;;
57828;SDS011;43657;52.698;6.314;2023-07-16T03:11:12;11.07;;;5.57;;
57828;SDS011;43657;52.698;6.314;2023-07-16T03:13:37;10.52;;;5.95;;
57828;SDS011;43657;52.698;6.314;2023-07-16T03:16:03;9.73;;;6.03;;
57828;SDS011;43657;52.698;6.314;2023-07-16T03:18:29;10.25;;;5.80;;
57828;SDS011;43657;52.698;6.314;2023-07-16T03:20:55;13.02;;;5.53;;
57828;SDS011;43657;52.698;6.314;2023-07-16T03:23:22;9.70;;;5.93;;
57828;SDS011;43657;52.698;6.314;2023-07-16T03:25:48;13.18;;;6.35;;
57828;SDS011;43657;52.698;6.314;2023-07-16T03:28:13;8.40;;;6.00;;
57828;SDS011;43657;52.698;6.314;2023-07-16T03:30:39;10.68;;;6.22;;
57828;SDS011;43657;52.698;6.314;2023-07-16T03:33:05;11.50;;;6.32;;
57828;SDS011;43657;52.698;6.314;2023-07-16T03:35:30;11.05;;;6.28;;
57828;SDS011;43657;52.698;6.314;2023-07-16T03:37:56;12.88;;;6.35;;
57828;SDS011;43657;52.698;6.314;2023-07-16T03:40:25;18.63;;;6.45;;
57828;SDS011;43657;52.698;6.314;2023-07-16T03:42:51;11.68;;;6.40;;
57828;SDS011;43657;52.698;6.314;2023-07-16T03:45:17;10.98;;;5.82;;
57828;SDS011;43657;52.698;6.314;2023-07-16T03:47:44;11.57;;;6.22;;
57828;SDS011;43657;52.698;6.314;2023-07-16T03:50:10;11.20;;;6.25;;
57828;SDS011;43657;52.698;6.314;2023-07-16T03:52:36;10.40;;;6.15;;
57828;SDS011;43657;52.698;6.314;2023-07-16T03:55:01;10.57;;;6.47;;
57828;SDS011;43657;52.698;6.314;2023-07-16T03:57:28;10.77;;;6.30;;
57828;SDS011;43657;52.698;6.314;2023-07-16T03:59:54;10.80;;;6.18;;
57828;SDS011;43657;52.698;6.314;2023-07-16T04:02:20;11.18;;;6.40;;
57828;SDS011;43657;52.698;6.314;2023-07-16T04:04:45;12.50;;;6.80;;
57828;SDS011;43657;52.698;6.314;2023-07-16T04:07:11;12.95;;;6.75;;
57828;SDS011;43657;52.698;6.314;2023-07-16T04:09:37;13.73;;;6.38;;
57828;SDS011;43657;52.698;6.314;2023-07-16T04:12:04;12.25;;;6.20;;
57828;SDS011;43657;52.698;6.314;2023-07-16T04:14:32;14.82;;;6.47;;
57828;SDS011;43657;52.698;6.314;2023-07-16T04:16:58;11.05;;;6.75;;
57828;SDS011;43657;52.698;6.314;2023-07-16T04:19:23;10.18;;;6.53;;
57828;SDS011;43657;52.698;6.314;2023-07-16T04:21:49;11.20;;;6.30;;
57828;SDS011;43657;52.698;6.314;2023-07-16T04:24:15;8.50;;;6.05;;
57828;SDS011;43657;52.698;6.314;2023-07-16T04:26:40;13.43;;;6.38;;
57828;SDS011;43657;52.698;6.314;2023-07-16T04:29:06;11.00;;;6.07;;
57828;SDS011;43657;52.698;6.314;2023-07-16T04:31:32;14.07;;;6.35;;
57828;SDS011;43657;52.698;6.314;2023-07-16T04:33:57;11.30;;;5.63;;
57828;SDS011;43657;52.698;6.314;2023-07-16T04:36:23;13.15;;;6.50;;
57828;SDS011;43657;52.698;6.314;2023-07-16T04:38:48;12.40;;;6.32;;
57828;SDS011;43657;52.698;6.314;2023-07-16T04:41:15;13.48;;;6.28;;
57828;SDS011;43657;52.698;6.314;2023-07-16T04:43:41;11.25;;;5.90;;
57828;SDS011;43657;52.698;6.314;2023-07-16T04:46:07;12.68;;;5.82;;
57828;SDS011;43657;52.698;6.314;2023-07-16T04:48:32;13.38;;;5.82;;
57828;SDS011;43657;52.698;6.314;2023-07-16T04:50:58;10.10;;;5.55;;
57828;SDS011;43657;52.698;6.314;2023-07-16T04:53:24;8.30;;;5.32;;
57828;SDS011;43657;52.698;6.314;2023-07-16T04:55:50;8.43;;;4.85;;
57828;SDS011;43657;52.698;6.314;2023-07-16T04:58:15;7.85;;;5.07;;
57828;SDS011;43657;52.698;6.314;2023-07-16T05:00:41;11.77;;;5.38;;
57828;SDS011;43657;52.698;6.314;2023-07-16T05:03:07;7.97;;;4.63;;
57828;SDS011;43657;52.698;6.314;2023-07-16T05:05:33;11.77;;;5.20;;
57828;SDS011;43657;52.698;6.314;2023-07-16T05:07:59;8.65;;;4.88;;
57828;SDS011;43657;52.698;6.314;2023-07-16T05:10:26;14.80;;;5.35;;
57828;SDS011;43657;52.698;6.314;2023-07-16T05:12:52;11.30;;;4.80;;
57828;SDS011;43657;52.698;6.314;2023-07-16T05:15:18;7.93;;;4.45;;
57828;SDS011;43657;52.698;6.314;2023-07-16T05:17:43;9.02;;;4.72;;
57828;SDS011;43657;52.698;6.314;2023-07-16T05:20:09;8.35;;;4.47;;
57828;SDS011;43657;52.698;6.314;2023-07-16T05:22:35;8.98;;;4.30;;
57828;SDS011;43657;52.698;6.314;2023-07-16T05:25:01;8.70;;;4.55;;
57828;SDS011;43657;52.698;6.314;2023-07-16T05:27:27;7.70;;;4.78;;
57828;SDS011;43657;52.698;6.314;2023-07-16T05:29:53;9.13;;;4.47;;
57828;SDS011;43657;52.698;6.314;2023-07-16T05:32:19;8.57;;;4.45;;
57828;SDS011;43657;52.698;6.314;2023-07-16T05:34:44;9.13;;;4.70;;
57828;SDS011;43657;52.698;6.314;2023-07-16T05:37:11;12.05;;;5.07;;
57828;SDS011;43657;52.698;6.314;2023-07-16T05:39:37;10.13;;;5.25;;
57828;SDS011;43657;52.698;6.314;2023-07-16T05:42:03;9.05;;;4.65;;
57828;SDS011;43657;52.698;6.314;2023-07-16T05:44:29;8.85;;;4.53;;
57828;SDS011;43657;52.698;6.314;2023-07-16T05:46:55;8.18;;;4.60;;
57828;SDS011;43657;52.698;6.314;2023-07-16T05:49:20;10.25;;;5.28;;
57828;SDS011;43657;52.698;6.314;2023-07-16T05:51:46;8.68;;;5.35;;
57828;SDS011;43657;52.698;6.314;2023-07-16T05:54:12;8.82;;;5.13;;
57828;SDS011;43657;52.698;6.314;2023-07-16T05:56:38;8.43;;;5.32;;
57828;SDS011;43657;52.698;6.314;2023-07-16T05:59:03;8.70;;;5.57;;
57828;SDS011;43657;52.698;6.314;2023-07-16T06:01:29;10.40;;;6.05;;
57828;SDS011;43657;52.698;6.314;2023-07-16T06:03:54;11.23;;;5.57;;
57828;SDS011;43657;52.698;6.314;2023-07-16T06:06:20;9.90;;;5.82;;
57828;SDS011;43657;52.698;6.314;2023-07-16T06:08:46;8.63;;;5.60;;
57828;SDS011;43657;52.698;6.314;2023-07-16T06:11:12;9.27;;;6.10;;
57828;SDS011;43657;52.698;6.314;2023-07-16T06:13:37;9.80;;;6.13;;
57828;SDS011;43657;52.698;6.314;2023-07-16T06:16:03;8.95;;;5.80;;
57828;SDS011;43657;52.698;6.314;2023-07-16T06:18:29;10.63;;;6.43;;
57828;SDS011;43657;52.698;6.314;2023-07-16T06:20:55;9.23;;;5.95;;
57828;SDS011;43657;52.698;6.314;2023-07-16T06:23:20;10.27;;;6.03;;
57828;SDS011;43657;52.698;6.314;2023-07-16T06:25:46;9.70;;;5.70;;
57828;SDS011;43657;52.698;6.314;2023-07-16T06:28:13;12.40;;;6.50;;
57828;SDS011;43657;52.698;6.314;2023-07-16T06:30:39;10.88;;;6.45;;
57828;SDS011;43657;52.698;6.314;2023-07-16T06:33:05;10.40;;;6.63;;
57828;SDS011;43657;52.698;6.314;2023-07-16T06:35:31;12.75;;;7.05;;
57828;SDS011;43657;52.698;6.314;2023-07-16T06:37:57;11.55;;;6.72;;
57828;SDS011;43657;52.698;6.314;2023-07-16T06:40:23;9.38;;;6.32;;
57828;SDS011;43657;52.698;6.314;2023-07-16T06:42:49;12.18;;;6.85;;
57828;SDS011;43657;52.698;6.314;2023-07-16T06:45:16;12.43;;;6.47;;
57828;SDS011;43657;52.698;6.314;2023-07-16T06:47:42;8.65;;;6.60;;
57828;SDS011;43657;52.698;6.314;2023-07-16T06:50:08;10.07;;;6.10;;
57828;SDS011;43657;52.698;6.314;2023-07-16T06:52:34;10.55;;;6.45;;
57828;SDS011;43657;52.698;6.314;2023-07-16T06:55:00;9.63;;;6.47;;
57828;SDS011;43657;52.698;6.314;2023-07-16T06:57:25;10.85;;;6.25;;
57828;SDS011;43657;52.698;6.314;2023-07-16T06:59:51;9.73;;;6.53;;
57828;SDS011;43657;52.698;6.314;2023-07-16T07:02:17;8.35;;;6.03;;
57828;SDS011;43657;52.698;6.314;2023-07-16T07:04:43;8.98;;;6.80;;
57828;SDS011;43657;52.698;6.314;2023-07-16T07:07:09;9.00;;;6.53;;
57828;SDS011;43657;52.698;6.314;2023-07-16T07:09:35;12.45;;;7.10;;
57828;SDS011;43657;52.698;6.314;2023-07-16T07:12:00;10.45;;;7.15;;
57828;SDS011;43657;52.698;6.314;2023-07-16T07:14:26;8.80;;;6.10;;
57828;SDS011;43657;52.698;6.314;2023-07-16T07:16:52;9.52;;;6.78;;
57828;SDS011;43657;52.698;6.314;2023-07-16T07:19:17;9.70;;;6.30;;
57828;SDS011;43657;52.698;6.314;2023-07-16T07:21:43;10.77;;;6.55;;
57828;SDS011;43657;52.698;6.314;2023-07-16T07:24:08;9.55;;;6.72;;
57828;SDS011;43657;52.698;6.314;2023-07-16T07:26:34;8.57;;;6.32;;
57828;SDS011;43657;52.698;6.314;2023-07-16T07:29:00;10.15;;;6.38;;
57828;SDS011;43657;52.698;6.314;2023-07-16T07:31:25;9.63;;;6.43;;
57828;SDS011;43657;52.698;6.314;2023-07-16T07:33:51;13.15;;;6.50;;
57828;SDS011;43657;52.698;6.314;2023-07-16T07:36:18;8.57;;;6.40;;
57828;SDS011;43657;52.698;6.314;2023-07-16T07:38:44;8.80;;;6.10;;
57828;SDS011;43657;52.698;6.314;2023-07-16T07:41:10;10.48;;;5.97;;
57828;SDS011;43657;52.698;6.314;2023-07-16T07:43:36;8.55;;;6.30;;
57828;SDS011;43657;52.698;6.314;2023-07-16T07:46:01;11.65;;;6.43;;
57828;SDS011;43657;52.698;6.314;2023-07-16T07:48:27;11.90;;;6.28;;
57828;SDS011;43657;52.698;6.314;2023-07-16T07:50:53;9.77;;;6.07;;
57828;SDS011;43657;52.698;6.314;2023-07-16T07:53:18;11.48;;;6.38;;
57828;SDS011;43657;52.698;6.314;2023-07-16T07:55:44;7.88;;;6.20;;
57828;SDS011;43657;52.698;6.314;2023-07-16T07:58:10;11.38;;;6.13;;
57828;SDS011;43657;52.698;6.314;2023-07-16T08:00:37;9.13;;;6.18;;
57828;SDS011;43657;52.698;6.314;2023-07-16T08:03:03;9.63;;;6.03;;
57828;SDS011;43657;52.698;6.314;2023-07-16T08:05:28;9.32;;;5.60;;
57828;SDS011;43657;52.698;6.314;2023-07-16T08:07:54;8.35;;;5.88;;
57828;SDS011;43657;52.698;6.314;2023-07-16T08:10:20;8.13;;;6.10;;
57828;SDS011;43657;52.698;6.314;2023-07-16T08:12:47;11.18;;;6.30;;
57828;SDS011;43657;52.698;6.314;2023-07-16T08:15:12;9.35;;;6.18;;
57828;SDS011;43657;52.698;6.314;2023-07-16T08:17:41;11.82;;;6.50;;
57828;SDS011;43657;52.698;6.314;2023-07-16T08:20:08;8.32;;;5.80;;
57828;SDS011;43657;52.698;6.314;2023-07-16T08:22:34;10.63;;;7.13;;
57828;SDS011;43657;52.698;6.314;2023-07-16T08:25:00;9.77;;;6.05;;
57828;SDS011;43657;52.698;6.314;2023-07-16T08:27:25;10.55;;;6.40;;
57828;SDS011;43657;52.698;6.314;2023-07-16T08:29:51;11.90;;;6.72;;
57828;SDS011;43657;52.698;6.314;2023-07-16T08:32:16;11.05;;;6.43;;
57828;SDS011;43657;52.698;6.314;2023-07-16T08:34:44;10.38;;;6.25;;
57828;SDS011;43657;52.698;6.314;2023-07-16T08:37:09;10.10;;;7.07;;
57828;SDS011;43657;52.698;6.314;2023-07-16T08:39:35;10.30;;;6.07;;
57828;SDS011;43657;52.698;6.314;2023-07-16T08:42:01;11.25;;;6.55;;
57828;SDS011;43657;52.698;6.314;2023-07-16T08:44:26;11.50;;;5.93;;
57828;SDS011;43657;52.698;6.314;2023-07-16T08:46:54;8.43;;;5.63;;
57828;SDS011;43657;52.698;6.314;2023-07-16T08:49:19;8.75;;;6.18;;
57828;SDS011;43657;52.698;6.314;2023-07-16T08:51:48;8.40;;;5.85;;
57828;SDS011;43657;52.698;6.314;2023-07-16T08:54:14;8.77;;;5.85;;
57828;SDS011;43657;52.698;6.314;2023-07-16T08:56:44;8.75;;;5.57;;
57828;SDS011;43657;52.698;6.314;2023-07-16T08:59:13;8.90;;;5.05;;
57828;SDS011;43657;52.698;6.314;2023-07-16T09:01:40;6.97;;;5.80;;
57828;SDS011;43657;52.698;6.314;2023-07-16T09:04:05;10.35;;;6.32;;
57828;SDS011;43657;52.698;6.314;2023-07-16T09:06:31;7.32;;;5.05;;
57828;SDS011;43657;52.698;6.314;2023-07-16T09:08:57;8.73;;;5.72;;
57828;SDS011;43657;52.698;6.314;2023-07-16T09:11:23;9.88;;;5.88;;
57828;SDS011;43657;52.698;6.314;2023-07-16T09:13:49;6.93;;;5.45;;
57828;SDS011;43657;52.698;6.314;2023-07-16T09:16:15;8.80;;;5.38;;
57828;SDS011;43657;52.698;6.314;2023-07-16T09:18:43;9.80;;;5.78;;
57828;SDS011;43657;52.698;6.314;2023-07-16T09:21:08;9.13;;;5.72;;
57828;SDS011;43657;52.698;6.314;2023-07-16T09:23:35;8.57;;;5.70;;
57828;SDS011;43657;52.698;6.314;2023-07-16T09:26:01;7.50;;;5.47;;
57828;SDS011;43657;52.698;6.314;2023-07-16T09:28:29;9.20;;;6.13;;
57828;SDS011;43657;52.698;6.314;2023-07-16T09:30:56;7.82;;;5.72;;
57828;SDS011;43657;52.698;6.314;2023-07-16T09:33:28;8.90;;;5.60;;
57828;SDS011;43657;52.698;6.314;2023-07-16T09:35:53;10.00;;;6.15;;
57828;SDS011;43657;52.698;6.314;2023-07-16T09:38:19;10.70;;;5.78;;
57828;SDS011;43657;52.698;6.314;2023-07-16T09:40:46;9.45;;;5.60;;
57828;SDS011;43657;52.698;6.314;2023-07-16T09:43:11;9.27;;;6.00;;
57828;SDS011;43657;52.698;6.314;2023-07-16T09:45:38;12.07;;;5.75;;
57828;SDS011;43657;52.698;6.314;2023-07-16T09:48:03;9.50;;;6.40;;
57828;SDS011;43657;52.698;6.314;2023-07-16T09:50:31;10.70;;;6.55;;
57828;SDS011;43657;52.698;6.314;2023-07-16T09:53:01;9.15;;;6.15;;
57828;SDS011;43657;52.698;6.314;2023-07-16T09:55:28;9.25;;;5.85;;
57828;SDS011;43657;52.698;6.314;2023-07-16T09:57:57;9.13;;;5.75;;
57828;SDS011;43657;52.698;6.314;2023-07-16T10:00:24;8.65;;;6.00;;
57828;SDS011;43657;52.698;6.314;2023-07-16T10:02:51;10.15;;;5.95;;
57828;SDS011;43657;52.698;6.314;2023-07-16T10:05:18;9.40;;;6.07;;
57828;SDS011;43657;52.698;6.314;2023-07-16T10:07:52;7.80;;;5.57;;
57828;SDS011;43657;52.698;6.314;2023-07-16T10:10:44;10.43;;;6.03;;
57828;SDS011;43657;52.698;6.314;2023-07-16T10:13:16;8.02;;;6.10;;
57828;SDS011;43657;52.698;6.314;2023-07-16T10:15:52;9.45;;;6.30;;
57828;SDS011;43657;52.698;6.314;2023-07-16T10:18:24;8.70;;;6.38;;
57828;SDS011;43657;52.698;6.314;2023-07-16T10:20:59;8.00;;;6.18;;
57828;SDS011;43657;52.698;6.314;2023-07-16T10:23:44;9.45;;;6.57;;
57828;SDS011;43657;52.698;6.314;2023-07-16T10:26:11;9.20;;;6.50;;
57828;SDS011;43657;52.698;6.314;2023-07-16T10:28:38;8.68;;;5.85;;
57828;SDS011;43657;52.698;6.314;2023-07-16T10:31:04;10.70;;;6.75;;
57828;SDS011;43657;52.698;6.314;2023-07-16T10:33:32;10.43;;;6.10;;
57828;SDS011;43657;52.698;6.314;2023-07-16T10:35:59;8.52;;;6.35;;
57828;SDS011;43657;52.698;6.314;2023-07-16T10:38:25;9.07;;;6.30;;
57828;SDS011;43657;52.698;6.314;2023-07-16T10:40:51;7.57;;;5.50;;
57828;SDS011;43657;52.698;6.314;2023-07-16T10:43:17;7.85;;;5.65;;
57828;SDS011;43657;52.698;6.314;2023-07-16T10:45:42;7.95;;;5.55;;
57828;SDS011;43657;52.698;6.314;2023-07-16T10:48:11;8.27;;;5.65;;
57828;SDS011;43657;52.698;6.314;2023-07-16T10:50:37;9.00;;;6.10;;
57828;SDS011;43657;52.698;6.314;2023-07-16T10:53:03;8.60;;;5.47;;
57828;SDS011;43657;52.698;6.314;2023-07-16T10:55:29;9.73;;;5.60;;
57828;SDS011;43657;52.698;6.314;2023-07-16T10:57:56;8.68;;;5.47;;
57828;SDS011;43657;52.698;6.314;2023-07-16T11:00:23;7.10;;;5.47;;
57828;SDS011;43657;52.698;6.314;2023-07-16T11:02:51;9.45;;;5.30;;
57828;SDS011;43657;52.698;6.314;2023-07-16T11:05:18;7.70;;;5.18;;
57828;SDS011;43657;52.698;6.314;2023-07-16T11:07:47;7.43;;;5.03;;
57828;SDS011;43657;52.698;6.314;2023-07-16T11:10:17;8.32;;;5.80;;
57828;SDS011;43657;52.698;6.314;2023-07-16T11:12:43;9.00;;;5.47;;
57828;SDS011;43657;52.698;6.314;2023-07-16T11:15:09;8.95;;;5.47;;
57828;SDS011;43657;52.698;6.314;2023-07-16T11:17:38;6.60;;;5.90;;
57828;SDS011;43657;52.698;6.314;2023-07-16T11:20:06;7.35;;;5.68;;
57828;SDS011;43657;52.698;6.314;2023-07-16T11:22:36;8.23;;;5.57;;
57828;SDS011;43657;52.698;6.314;2023-07-16T11:25:03;9.27;;;5.70;;
57828;SDS011;43657;52.698;6.314;2023-07-16T11:27:32;10.00;;;6.03;;
57828;SDS011;43657;52.698;6.314;2023-07-16T11:29:58;8.10;;;5.78;;
57828;SDS011;43657;52.698;6.314;2023-07-16T11:35:07;9.25;;;5.60;;
57828;SDS011;43657;52.698;6.314;2023-07-16T11:37:35;9.00;;;6.03;;
57828;SDS011;43657;52.698;6.314;2023-07-16T11:42:32;8.65;;;5.70;;
57828;SDS011;43657;52.698;6.314;2023-07-16T11:45:00;7.32;;;4.90;;
57828;SDS011;43657;52.698;6.314;2023-07-16T11:47:26;7.05;;;5.22;;
57828;SDS011;43657;52.698;6.314;2023-07-16T11:49:53;7.65;;;5.85;;
57828;SDS011;43657;52.698;6.314;2023-07-16T11:52:20;11.40;;;5.55;;
57828;SDS011;43657;52.698;6.314;2023-07-16T11:54:46;9.32;;;5.90;;
57828;SDS011;43657;52.698;6.314;2023-07-16T11:57:12;7.25;;;5.45;;
57828;SDS011;43657;52.698;6.314;2023-07-16T11:59:38;8.80;;;5.38;;
57828;SDS011;43657;52.698;6.314;2023-07-16T12:02:03;8.80;;;6.40;;
57828;SDS011;43657;52.698;6.314;2023-07-16T12:04:29;8.07;;;5.55;;
57828;SDS011;43657;52.698;6.314;2023-07-16T12:06:55;11.82;;;6.25;;
57828;SDS011;43657;52.698;6.314;2023-07-16T12:09:20;8.32;;;5.90;;
57828;SDS011;43657;52.698;6.314;2023-07-16T12:11:46;8.52;;;6.18;;
57828;SDS011;43657;52.698;6.314;2023-07-16T12:14:12;7.53;;;6.05;;
57828;SDS011;43657;52.698;6.314;2023-07-16T12:16:38;8.85;;;5.78;;
57828;SDS011;43657;52.698;6.314;2023-07-16T12:19:04;7.38;;;6.03;;
57828;SDS011;43657;52.698;6.314;2023-07-16T12:21:30;13.88;;;6.32;;
57828;SDS011;43657;52.698;6.314;2023-07-16T12:23:56;9.63;;;6.55;;
57828;SDS011;43657;52.698;6.314;2023-07-16T12:26:21;11.02;;;6.35;;
57828;SDS011;43657;52.698;6.314;2023-07-16T12:28:47;8.60;;;5.80;;
57828;SDS011;43657;52.698;6.314;2023-07-16T12:31:13;7.68;;;5.78;;
57828;SDS011;43657;52.698;6.314;2023-07-16T12:33:40;8.10;;;5.10;;
57828;SDS011;43657;52.698;6.314;2023-07-16T12:36:05;7.25;;;5.30;;
57828;SDS011;43657;52.698;6.314;2023-07-16T12:38:31;6.97;;;5.05;;
57828;SDS011;43657;52.698;6.314;2023-07-16T12:40:56;7.55;;;4.55;;
57828;SDS011;43657;52.698;6.314;2023-07-16T12:43:22;6.20;;;3.95;;
57828;SDS011;43657;52.698;6.314;2023-07-16T12:45:48;6.47;;;4.50;;
57828;SDS011;43657;52.698;6.314;2023-07-16T12:48:13;8.48;;;4.15;;
57828;SDS011;43657;52.698;6.314;2023-07-16T12:50:39;7.38;;;4.82;;
57828;SDS011;43657;52.698;6.314;2023-07-16T12:53:04;6.90;;;4.90;;
57828;SDS011;43657;52.698;6.314;2023-07-16T12:55:30;8.15;;;4.63;;
57828;SDS011;43657;52.698;6.314;2023-07-16T12:57:56;7.22;;;5.32;;
57828;SDS011;43657;52.698;6.314;2023-07-16T13:00:22;7.90;;;4.80;;
57828;SDS011;43657;52.698;6.314;2023-07-16T13:02:47;6.93;;;4.63;;
57828;SDS011;43657;52.698;6.314;2023-07-16T13:05:13;6.47;;;4.68;;
57828;SDS011;43657;52.698;6.314;2023-07-16T13:07:39;6.05;;;4.45;;
57828;SDS011;43657;52.698;6.314;2023-07-16T13:10:04;7.47;;;5.05;;
57828;SDS011;43657;52.698;6.314;2023-07-16T13:12:31;6.10;;;4.22;;
57828;SDS011;43657;52.698;6.314;2023-07-16T13:14:56;4.75;;;4.25;;
57828;SDS011;43657;52.698;6.314;2023-07-16T13:17:22;5.78;;;3.70;;
57828;SDS011;43657;52.698;6.314;2023-07-16T13:19:47;4.10;;;3.63;;
57828;SDS011;43657;52.698;6.314;2023-07-16T13:22:13;5.50;;;3.90;;
57828;SDS011;43657;52.698;6.314;2023-07-16T13:24:39;6.93;;;4.43;;
57828;SDS011;43657;52.698;6.314;2023-07-16T13:27:05;7.07;;;4.15;;
57828;SDS011;43657;52.698;6.314;2023-07-16T13:29:30;4.78;;;4.00;;
57828;SDS011;43657;52.698;6.314;2023-07-16T13:31:56;7.63;;;4.18;;
57828;SDS011;43657;52.698;6.314;2023-07-16T13:34:22;5.22;;;3.20;;
57828;SDS011;43657;52.698;6.314;2023-07-16T13:36:47;4.80;;;2.97;;
57828;SDS011;43657;52.698;6.314;2023-07-16T13:39:13;3.80;;;2.55;;
57828;SDS011;43657;52.698;6.314;2023-07-16T13:41:38;3.72;;;2.80;;
57828;SDS011;43657;52.698;6.314;2023-07-16T13:44:04;5.13;;;3.05;;
57828;SDS011;43657;52.698;6.314;2023-07-16T13:46:30;5.85;;;2.88;;
57828;SDS011;43657;52.698;6.314;2023-07-16T13:48:56;4.05;;;2.60;;
57828;SDS011;43657;52.698;6.314;2023-07-16T13:51:22;4.85;;;2.60;;
57828;SDS011;43657;52.698;6.314;2023-07-16T13:53:48;4.00;;;2.55;;
57828;SDS011;43657;52.698;6.314;2023-07-16T13:56:13;4.57;;;2.50;;
57828;SDS011;43657;52.698;6.314;2023-07-16T13:58:39;4.20;;;2.20;;
57828;SDS011;43657;52.698;6.314;2023-07-16T14:01:04;4.68;;;2.40;;
57828;SDS011;43657;52.698;6.314;2023-07-16T14:03:30;4.13;;;2.30;;
57828;SDS011;43657;52.698;6.314;2023-07-16T14:05:56;4.38;;;2.20;;
57828;SDS011;43657;52.698;6.314;2023-07-16T14:08:21;3.60;;;2.38;;
57828;SDS011;43657;52.698;6.314;2023-07-16T14:10:48;4.88;;;2.30;;
57828;SDS011;43657;52.698;6.314;2023-07-16T14:13:14;3.97;;;2.30;;
57828;SDS011;43657;52.698;6.314;2023-07-16T14:15:40;3.90;;;2.20;;
57828;SDS011;43657;52.698;6.314;2023-07-16T14:18:06;4.43;;;2.67;;
57828;SDS011;43657;52.698;6.314;2023-07-16T14:20:32;4.22;;;2.30;;
57828;SDS011;43657;52.698;6.314;2023-07-16T14:22:58;5.50;;;2.58;;
57828;SDS011;43657;52.698;6.314;2023-07-16T14:25:23;3.35;;;2.15;;
57828;SDS011;43657;52.698;6.314;2023-07-16T14:27:49;5.40;;;2.30;;
57828;SDS011;43657;52.698;6.314;2023-07-16T14:30:15;5.28;;;2.40;;
57828;SDS011;43657;52.698;6.314;2023-07-16T14:32:41;6.25;;;2.70;;
57828;SDS011;43657;52.698;6.314;2023-07-16T14:35:08;17.48;;;3.17;;
57828;SDS011;43657;52.698;6.314;2023-07-16T14:37:34;6.95;;;2.63;;
57828;SDS011;43657;52.698;6.314;2023-07-16T14:39:59;8.55;;;3.00;;
57828;SDS011;43657;52.698;6.314;2023-07-16T14:42:25;7.40;;;3.42;;
57828;SDS011;43657;52.698;6.314;2023-07-16T14:44:50;7.93;;;2.88;;
57828;SDS011;43657;52.698;6.314;2023-07-16T14:47:16;5.38;;;3.08;;
57828;SDS011;43657;52.698;6.314;2023-07-16T14:49:42;7.97;;;3.60;;